NCAR-RAP Real-Time Weather Data

Output produced by METARs form (23 February 2020  01:52 UTC)
found at http://weather.rap.ucar.edu/surface/
 
KINL 230055Z AUTO 00000KT 10SM CLR M02/M07 A2970 RMK AO2 SLP079 T10221067
KINL 222355Z AUTO 00000KT 10SM CLR 02/M06 A2971 RMK AO2 SLP080 T00221056 10094 20017 55003